Time;durP1;ratioP1;P1;durP2;ratioP2;P2;SDS_P1;SDS_P2;PMS_P1;PMS_P2;Temp;Humidity;BMP_temperature;BMP_pressure;BME280_temperature;BME280_humidity;BME280_pressure;Samples;Min_cycle;Max_cycle;Signal;HPM_P1;HPM_P2
2023/04/19 08:06:38;;;;;;;26.17;6.20;;;;;;;10.48;66.32;102406.44;5049111;28;20400;-70
2023/04/19 08:09:04;;;;;;;22.00;6.70;;;;;;;10.51;66.07;102402.50;5048882;28;20075;-70
2023/04/19 08:11:30;;;;;;;12.30;6.28;;;;;;;10.57;64.83;102399.06;5045888;28;20029;-70
2023/04/19 08:13:56;;;;;;;10.63;6.53;;;;;;;10.61;65.89;102406.63;5051915;28;20057;-70
2023/04/19 08:16:21;;;;;;;12.40;6.10;;;;;;;10.64;64.25;102400.84;5060364;28;20078;-69
2023/04/19 08:18:50;;;;;;;9.23;6.38;;;;;;;10.70;64.90;102399.22;5060393;28;20029;-70
2023/04/19 08:21:15;;;;;;;10.13;6.40;;;;;;;10.81;65.30;102395.22;5049772;28;20068;-69
2023/04/19 08:23:41;;;;;;;8.57;6.55;;;;;;;10.88;65.26;102396.13;5050121;28;20065;-69
2023/04/19 08:26:06;;;;;;;17.33;6.07;;;;;;;10.90;62.88;102404.94;5061210;28;20032;-71
2023/04/19 08:28:32;;;;;;;9.55;6.30;;;;;;;10.92;61.68;102396.59;5069434;28;20051;-71
2023/04/19 08:30:58;;;;;;;12.60;6.32;;;;;;;10.97;62.62;102399.56;5061344;28;20033;-70
2023/04/19 08:33:23;;;;;;;13.10;6.53;;;;;;;11.03;61.63;102393.41;5049245;28;20040;-70
2023/04/19 08:35:49;;;;;;;12.20;6.25;;;;;;;11.07;60.37;102400.13;5048441;28;20033;-70
2023/04/19 08:38:14;;;;;;;12.32;6.03;;;;;;;11.11;61.45;102393.31;5061812;28;20029;-71
2023/04/19 08:40:50;;;;;;;18.15;7.97;;;;;;;11.17;60.03;102403.38;5048381;28;20025;-71
2023/04/19 08:43:17;;;;;;;11.50;6.68;;;;;;;11.21;60.18;102403.00;5049429;28;20075;-69
2023/04/19 08:45:46;;;;;;;12.02;6.65;;;;;;;11.28;60.06;102390.38;5047868;28;20392;-75
2023/04/19 08:48:14;;;;;;;19.80;6.45;;;;;;;11.33;59.18;102390.63;5047707;28;20075;-71
2023/04/19 08:50:41;;;;;;;14.40;6.40;;;;;;;11.38;57.84;102393.56;5050543;28;20082;-73
2023/04/19 08:53:12;;;;;;;13.00;6.13;;;;;;;11.43;55.79;102382.16;5069061;28;20036;-71
2023/04/19 08:55:39;;;;;;;;;;;;;;;11.51;60.12;102393.72;5067782;28;20036;-70
2023/04/19 08:58:05;;;;;;;11.77;6.43;;;;;;;11.53;57.07;102382.69;5066432;28;20375;-73
2023/04/19 09:00:32;;;;;;;11.20;6.05;;;;;;;11.57;55.34;102389.41;5063504;28;20033;-74
2023/04/19 09:02:58;;;;;;;11.65;6.22;;;;;;;11.63;56.17;102379.66;5054580;28;20033;-71
2023/04/19 09:05:23;;;;;;;15.73;6.05;;;;;;;11.74;56.50;102381.00;5049767;28;20112;-73
2023/04/19 09:07:49;;;;;;;11.95;6.28;;;;;;;11.81;54.04;102382.72;5047711;28;20117;-73
2023/04/19 09:10:17;;;;;;;11.38;5.65;;;;;;;11.85;53.79;102381.31;5046876;28;20029;-72
2023/04/19 09:12:42;;;;;;;13.55;6.03;;;;;;;11.88;53.83;102380.91;5048586;28;20238;-71
2023/04/19 09:15:09;;;;;;;12.48;5.80;;;;;;;11.88;52.90;102386.34;5048493;28;20032;-73
2023/04/19 09:17:36;;;;;;;8.05;5.30;;;;;;;11.95;53.45;102374.75;5036075;28;20022;-71
2023/04/19 09:20:03;;;;;;;8.27;4.85;;;;;;;12.07;54.27;102388.59;5036648;28;20104;-71
2023/04/19 09:22:28;;;;;;;8.98;5.45;;;;;;;12.08;52.98;102385.69;5043907;28;20034;-72
2023/04/19 09:24:54;;;;;;;9.32;5.30;;;;;;;12.13;52.57;102382.38;5054649;28;20112;-72
2023/04/19 09:27:29;;;;;;;12.20;5.38;;;;;;;12.15;51.89;102383.88;5055207;28;20120;-71
2023/04/19 09:29:56;;;;;;;13.55;5.30;;;;;;;12.15;50.85;102392.03;5052271;28;20036;-71
2023/04/19 09:32:22;;;;;;;14.05;4.60;;;;;;;12.23;51.46;102388.31;5043437;28;20033;-70
2023/04/19 09:34:56;;;;;;;8.85;4.30;;;;;;;12.26;52.21;102392.47;5034897;28;20030;-69
2023/04/19 09:37:22;;;;;;;16.60;4.28;;;;;;;12.26;49.75;102376.19;5033986;28;20045;-72
2023/04/19 09:39:51;;;;;;;15.85;5.22;;;;;;;12.29;48.83;102386.66;5034588;28;20366;-76
2023/04/19 09:42:17;;;;;;;32.42;6.47;;;;;;;12.31;49.35;102381.88;5034176;28;20534;-71
2023/04/19 09:44:56;;;;;;;11.38;4.63;;;;;;;12.30;49.56;102383.75;5034384;28;20087;-73
2023/04/19 09:47:23;;;;;;;8.48;4.07;;;;;;;12.28;47.96;102385.81;5033860;28;20108;-72
2023/04/19 09:50:03;;;;;;;12.23;4.40;;;;;;;12.27;48.79;102373.28;5046163;28;20437;-74
2023/04/19 09:52:29;;;;;;;9.43;4.13;;;;;;;12.28;48.99;102366.00;5046936;28;20198;-71
2023/04/19 09:54:57;;;;;;;17.98;4.40;;;;;;;12.25;46.65;102380.78;5054474;28;20124;-74
2023/04/19 09:57:22;;;;;;;24.20;5.13;;;;;;;12.31;47.44;102382.72;5045346;28;20043;-73
2023/04/19 09:59:48;;;;;;;8.18;3.88;;;;;;;12.36;49.14;102377.50;5032110;28;20129;-71
2023/04/19 10:02:14;;;;;;;7.55;3.70;;;;;;;12.34;47.63;102370.63;5048547;28;20472;-74
2023/04/19 10:04:41;;;;;;;7.28;4.15;;;;;;;12.34;47.87;102374.16;5036626;28;20604;-72
2023/04/19 10:07:07;;;;;;;5.53;4.05;;;;;;;12.33;47.51;102379.78;5031492;28;20396;-73
2023/04/19 10:09:34;;;;;;;7.03;3.90;;;;;;;12.40;47.15;102388.81;5033230;28;20033;-73
2023/04/19 10:12:00;;;;;;;3.88;3.47;;;;;;;12.42;46.58;102384.03;5034060;28;20094;-72
2023/04/19 10:14:31;;;;;;;7.75;3.40;;;;;;;12.44;45.68;102371.09;5031660;28;20033;-72
2023/04/19 10:16:57;;;;;;;8.98;3.95;;;;;;;12.40;44.45;102378.81;5031211;28;20033;-70
2023/04/19 10:19:23;;;;;;;14.35;4.53;;;;;;;12.47;45.99;102370.72;5034283;28;20044;-71
2023/04/19 10:21:50;;;;;;;10.50;4.18;;;;;;;12.49;45.65;102375.94;5033373;28;20038;-73
2023/04/19 10:24:20;;;;;;;10.25;4.00;;;;;;;12.49;45.36;102365.06;5052822;28;20049;-73
2023/04/19 10:27:03;;;;;;;12.07;3.78;;;;;;;12.54;46.21;102374.28;5035641;28;20116;-73
2023/04/19 10:29:54;;;;;;;8.00;3.85;;;;;;;12.58;45.60;102364.69;5031321;28;20392;-70
2023/04/19 10:32:19;;;;;;;6.03;3.50;;;;;;;12.59;44.89;102366.38;5034026;28;20107;-72
2023/04/19 10:34:45;;;;;;;24.77;3.95;;;;;;;12.59;43.80;102365.53;5032736;28;20057;-71
2023/04/19 10:37:13;;;;;;;5.53;2.90;;;;;;;12.55;42.20;102375.97;5048823;28;20086;-73
2023/04/19 10:39:42;;;;;;;19.90;3.50;;;;;;;12.54;41.37;102357.97;5053577;28;20033;-71
2023/04/19 10:42:07;;;;;;;5.43;3.17;;;;;;;12.55;41.70;102367.00;5053515;28;20495;-72
2023/04/19 10:44:33;;;;;;;7.88;2.90;;;;;;;12.59;42.55;102360.94;5053719;28;20104;-73
2023/04/19 10:46:58;;;;;;;3.45;2.50;;;;;;;12.69;42.69;102355.13;5035359;28;20067;-73
2023/04/19 10:49:26;;;;;;;5.38;2.75;;;;;;;12.77;42.98;102367.69;5032690;28;20026;-71
2023/04/19 10:51:53;;;;;;;9.27;2.78;;;;;;;12.84;41.74;102356.88;5034555;28;20025;-74
2023/04/19 10:54:54;;;;;;;12.82;2.63;;;;;;;12.96;42.59;102354.41;5053307;28;20055;-72
2023/04/19 10:57:20;;;;;;;8.77;2.30;;;;;;;12.96;40.12;102355.25;5046048;28;20199;-71
2023/04/19 11:00:20;;;;;;;6.18;2.20;;;;;;;12.98;41.32;102347.72;5051861;28;20100;-73
2023/04/19 11:02:45;;;;;;;9.85;2.83;;;;;;;13.00;40.23;102353.81;5040832;28;20083;-72
2023/04/19 11:05:13;;;;;;;11.68;2.63;;;;;;;13.06;39.66;102341.28;5033135;28;20045;-71
2023/04/19 11:07:39;;;;;;;9.73;2.53;;;;;;;13.09;39.39;102347.13;5032037;28;20522;-73
2023/04/19 11:10:06;;;;;;;8.63;2.20;;;;;;;13.11;38.81;102342.31;5032106;28;20033;-74
2023/04/19 11:12:32;;;;;;;28.33;3.83;;;;;;;13.15;39.08;102331.91;5052760;28;20037;-71
2023/04/19 11:15:01;;;;;;;15.25;2.67;;;;;;;13.27;39.76;102338.38;5052666;28;20036;-72
2023/04/19 11:17:31;;;;;;;11.68;2.40;;;;;;;13.27;39.39;102341.09;5051816;28;20033;-70
2023/04/19 11:20:01;;;;;;;8.75;2.92;;;;;;;13.29;38.53;102339.00;5052618;28;20032;-71
2023/04/19 11:22:38;;;;;;;36.42;4.13;;;;;;;13.29;38.62;102343.63;5031410;28;20036;-74
2023/04/19 11:25:21;;;;;;;7.25;2.63;;;;;;;13.36;40.37;102344.50;5031552;28;20070;-74
2023/04/19 11:27:48;;;;;;;6.85;2.75;;;;;;;13.38;39.24;102347.03;5027424;28;20033;-72
2023/04/19 11:30:15;;;;;;;5.43;2.67;;;;;;;13.43;39.59;102337.16;5031993;28;20112;-73
2023/04/19 11:32:48;;;;;;;9.88;2.85;;;;;;;13.40;39.18;102337.59;5033047;28;20040;-71
2023/04/19 11:35:17;;;;;;;6.50;3.00;;;;;;;13.39;39.17;102324.19;5032942;28;20477;-74
2023/04/19 11:37:42;;;;;;;7.28;2.95;;;;;;;13.36;40.05;102332.78;5032335;28;20045;-74
2023/04/19 11:40:08;;;;;;;7.50;2.90;;;;;;;13.42;40.07;102318.34;5030636;28;20037;-74
2023/04/19 11:42:34;;;;;;;6.97;2.60;;;;;;;13.51;39.87;102324.41;5032791;28;20044;-73
2023/04/19 11:45:00;;;;;;;11.30;3.00;;;;;;;13.51;39.23;102314.38;5031164;28;20056;-71
2023/04/19 11:47:26;;;;;;;8.40;3.10;;;;;;;13.57;39.65;102308.13;5032751;28;20473;-71
2023/04/19 11:49:54;;;;;;;11.77;2.70;;;;;;;13.73;40.02;102315.00;5031136;28;20037;-73
2023/04/19 11:52:28;;;;;;;11.05;3.10;;;;;;;13.76;39.45;102311.03;5030911;28;20083;-72
2023/04/19 11:54:53;;;;;;;6.35;2.60;;;;;;;13.80;39.26;102302.25;5017922;28;20029;-72
2023/04/19 11:57:29;;;;;;;5.28;2.83;;;;;;;13.86;40.34;102295.13;5032315;28;20473;-71
2023/04/19 12:00:26;;;;;;;10.52;2.75;;;;;;;13.94;39.95;102286.72;5032142;28;20030;-69
2023/04/19 12:02:52;;;;;;;4.75;2.83;;;;;;;13.99;39.16;102288.81;5011947;28;20041;-72
2023/04/19 12:05:18;;;;;;;11.65;3.22;;;;;;;14.03;37.46;102290.06;5011023;28;20565;-74
2023/04/19 12:08:01;;;;;;;11.32;2.75;;;;;;;14.22;40.14;102293.78;5015567;28;20093;-71
2023/04/19 12:10:26;;;;;;;7.97;3.30;;;;;;;14.36;38.14;102279.06;5035934;28;20036;-73
2023/04/19 12:12:51;;;;;;;23.73;3.90;;;;;;;14.32;36.29;102277.81;5050947;28;20029;-73
2023/04/19 12:15:17;;;;;;;8.77;2.70;;;;;;;14.33;35.86;102289.56;5051093;28;20035;-69
2023/04/19 12:17:59;;;;;;;8.48;2.90;;;;;;;14.36;36.62;102270.91;5052382;28;20056;-75
2023/04/19 12:20:49;;;;;;;4.28;2.85;;;;;;;14.52;37.81;102268.72;5050296;28;20090;-74
2023/04/19 12:23:15;;;;;;;8.45;2.95;;;;;;;14.56;35.96;102266.44;5041451;28;20431;-73
2023/04/19 12:25:41;;;;;;;7.30;2.53;;;;;;;14.62;35.56;102260.97;5030883;28;20033;-73
2023/04/19 12:28:07;;;;;;;5.53;2.78;;;;;;;14.71;36.18;102265.09;5039310;28;20033;-70
2023/04/19 12:30:35;;;;;;;9.98;3.03;;;;;;;14.76;35.57;102261.72;5024762;28;20036;-69
2023/04/19 12:33:01;;;;;;;14.90;2.80;;;;;;;14.79;35.35;102260.47;5024348;28;20092;-68
2023/04/19 12:35:27;;;;;;;19.52;3.47;;;;;;;14.76;34.43;102272.63;5029500;28;20049;-70
2023/04/19 12:37:53;;;;;;;9.60;3.20;;;;;;;14.79;33.73;102266.72;5029769;28;20477;-73
2023/04/19 12:40:19;;;;;;;7.72;2.55;;;;;;;14.78;32.69;102261.50;5035562;28;20380;-72
2023/04/19 12:43:00;;;;;;;4.90;2.67;;;;;;;14.89;34.71;102264.38;5045512;28;20033;-78
2023/04/19 12:45:31;;;;;;;12.75;2.80;;;;;;;15.04;33.52;102271.41;5049671;28;20136;-75
2023/04/19 12:48:02;;;;;;;5.57;2.72;;;;;;;15.11;34.36;102249.56;5047970;28;20175;-80
2023/04/19 12:50:27;;;;;;;;;;;;;;;15.32;35.27;102251.88;5051786;28;20032;-72
2023/04/19 12:52:53;;;;;;;8.33;2.77;;;;;;;15.24;32.37;102252.19;5052791;28;19954;-71
2023/04/19 12:55:27;;;;;;;10.00;2.75;;;;;;;15.38;32.80;102253.75;5055519;28;20036;-75
2023/04/19 12:57:53;;;;;;;9.07;2.80;;;;;;;15.41;31.67;102252.44;5046623;28;20049;-71
2023/04/19 13:00:18;;;;;;;7.43;2.75;;;;;;;15.55;31.55;102253.16;5041829;28;20052;-72
2023/04/19 13:02:43;;;;;;;18.77;3.20;;;;;;;15.50;30.23;102242.09;5033232;28;20500;-72
2023/04/19 13:05:10;;;;;;;9.88;2.65;;;;;;;15.59;31.78;102241.59;5032954;28;20135;-71
2023/04/19 13:07:36;;;;;;;6.63;2.55;;;;;;;15.75;30.41;102231.97;5034768;28;20045;-72
2023/04/19 13:10:02;;;;;;;7.68;2.60;;;;;;;15.71;29.52;102229.94;5034913;28;20044;-71
2023/04/19 13:12:27;;;;;;;10.38;2.60;;;;;;;15.77;30.65;102229.88;5035015;28;20029;-71
2023/04/19 13:14:53;;;;;;;7.80;2.70;;;;;;;15.79;28.99;102221.47;5034683;28;20033;-71
2023/04/19 13:17:19;;;;;;;10.38;2.60;;;;;;;15.75;28.28;102220.25;5041698;28;20055;-72
2023/04/19 13:19:44;;;;;;;7.45;2.30;;;;;;;15.83;28.23;102216.41;5053574;28;20406;-72
2023/04/19 13:22:10;;;;;;;9.18;2.35;;;;;;;15.93;28.82;102197.59;5053275;28;20601;-71
2023/04/19 13:24:35;;;;;;;5.90;2.20;;;;;;;15.93;28.68;102200.34;5052545;28;20068;-73
2023/04/19 13:27:00;;;;;;;11.20;2.90;;;;;;;15.98;27.69;102196.91;5046215;28;20028;-73
2023/04/19 13:29:26;;;;;;;10.23;2.70;;;;;;;16.09;29.55;102201.59;5034565;28;20037;-71
2023/04/19 13:31:51;;;;;;;14.75;3.20;;;;;;;16.13;28.55;102198.19;5034669;28;20362;-72
2023/04/19 13:34:17;;;;;;;7.25;2.42;;;;;;;16.07;28.10;102192.81;5034503;28;20068;-73
2023/04/19 13:36:59;;;;;;;12.60;3.53;;;;;;;16.11;29.95;102191.31;5033607;28;20503;-76
2023/04/19 13:39:24;;;;;;;20.30;3.33;;;;;;;16.13;29.12;102200.09;5048163;28;20060;-71
2023/04/19 13:41:50;;;;;;;5.45;2.50;;;;;;;16.08;29.13;102187.13;5052385;28;20057;-73
2023/04/19 13:44:15;;;;;;;8.10;3.10;;;;;;;16.06;28.98;102191.13;5054443;28;20020;-71
2023/04/19 13:46:41;;;;;;;7.90;2.95;;;;;;;16.12;29.39;102187.50;5047906;28;20457;-71
2023/04/19 13:49:06;;;;;;;10.02;3.10;;;;;;;16.10;29.34;102175.97;5034418;28;20031;-73
2023/04/19 13:51:31;;;;;;;12.65;2.92;;;;;;;16.24;30.05;102169.25;5034595;28;20477;-71
2023/04/19 13:53:57;;;;;;;25.88;3.53;;;;;;;16.31;29.14;102185.56;5033203;28;20029;-72
2023/04/19 13:56:22;;;;;;;8.27;2.83;;;;;;;16.30;29.30;102172.97;5033545;28;20037;-73
2023/04/19 13:58:47;;;;;;;8.32;2.72;;;;;;;16.34;29.32;102174.19;5035243;28;20079;-74
2023/04/19 14:01:12;;;;;;;10.85;3.28;;;;;;;16.37;29.58;102165.53;5030857;28;20061;-72
2023/04/19 14:03:38;;;;;;;9.35;2.90;;;;;;;16.35;28.98;102167.66;5034567;28;20436;-71
2023/04/19 14:06:03;;;;;;;10.27;2.90;;;;;;;16.36;29.01;102166.56;5033460;28;20417;-71
2023/04/19 14:08:29;;;;;;;9.00;3.05;;;;;;;16.25;29.13;102153.72;5052184;28;20040;-74
2023/04/19 14:10:54;;;;;;;6.40;3.03;;;;;;;16.30;29.01;102160.16;5053956;28;20025;-73
2023/04/19 14:13:20;;;;;;;4.95;2.78;;;;;;;16.37;29.86;102153.78;5043742;28;20420;-73
2023/04/19 14:15:45;;;;;;;4.30;2.80;;;;;;;16.42;29.23;102151.16;5034481;28;20477;-76
2023/04/19 14:18:10;;;;;;;6.55;2.90;;;;;;;16.38;29.79;102144.50;5034197;28;20484;-73
2023/04/19 14:20:36;;;;;;;10.65;3.10;;;;;;;16.41;28.90;102136.69;5037941;28;20025;-72
2023/04/19 14:23:01;;;;;;;9.30;3.22;;;;;;;16.38;29.02;102145.34;5044852;28;20041;-74
2023/04/19 14:25:27;;;;;;;6.72;2.95;;;;;;;16.56;29.56;102138.97;5053977;28;20083;-75
2023/04/19 14:27:52;;;;;;;5.63;3.20;;;;;;;16.79;29.16;102127.25;5050370;28;20442;-74
2023/04/19 14:30:18;;;;;;;5.97;3.15;;;;;;;17.13;28.99;102126.72;5053764;28;20041;-75
2023/04/19 14:32:44;;;;;;;8.57;3.25;;;;;;;17.38;29.11;102131.94;5052928;28;20437;-73
2023/04/19 14:35:12;;;;;;;9.48;3.60;;;;;;;17.70;27.68;102137.00;5053713;28;20067;-69
2023/04/19 14:37:37;;;;;;;6.88;3.00;;;;;;;17.97;27.18;102118.13;5036033;28;20035;-70
2023/04/19 14:40:03;;;;;;;6.60;3.10;;;;;;;18.30;26.48;102122.06;5032657;28;20033;-74
2023/04/19 14:42:29;;;;;;;8.80;3.40;;;;;;;18.57;27.34;102105.81;5033917;28;20064;-69
2023/04/19 14:44:57;;;;;;;7.20;3.35;;;;;;;18.87;27.02;102112.91;5033476;28;20117;-71
2023/04/19 14:47:22;;;;;;;8.52;4.00;;;;;;;19.22;26.93;102117.28;5045658;28;20087;-71
2023/04/19 14:49:48;;;;;;;6.28;3.55;;;;;;;19.52;26.36;102107.81;5045963;28;20412;-74
2023/04/19 14:52:13;;;;;;;5.68;3.50;;;;;;;19.61;25.79;102094.44;5033164;28;20108;-72
2023/04/19 14:54:38;;;;;;;12.05;3.60;;;;;;;19.68;25.08;102094.25;5033639;28;20022;-76
2023/04/19 14:57:03;;;;;;;8.85;3.30;;;;;;;19.65;24.77;102101.91;5041761;28;20108;-74
2023/04/19 14:59:30;;;;;;;15.82;3.70;;;;;;;19.67;25.18;102107.13;5052209;28;20502;-75
2023/04/19 15:01:55;;;;;;;9.38;3.55;;;;;;;19.71;25.82;102097.31;5049827;28;20116;-76
2023/04/19 15:04:20;;;;;;;9.55;3.60;;;;;;;19.81;24.75;102099.41;5051407;28;20152;-74
2023/04/19 15:06:52;;;;;;;6.28;3.25;;;;;;;19.79;25.17;102096.06;5044580;28;20484;-77
2023/04/19 15:09:17;;;;;;;;;;;;;;;20.30;27.73;102090.28;5051936;28;20550;-75
2023/04/19 15:11:42;;;;;;;10.53;3.50;;;;;;;19.94;25.28;102087.16;5039610;28;19912;-72
2023/04/19 15:14:08;;;;;;;5.90;3.10;;;;;;;19.93;25.29;102083.59;5038774;28;20313;-72
2023/04/19 15:16:35;;;;;;;10.43;3.47;;;;;;;20.07;25.17;102080.44;5052892;28;20025;-78
2023/04/19 15:19:01;;;;;;;6.95;3.70;;;;;;;20.30;25.87;102077.34;5052941;28;20043;-74
2023/04/19 15:21:28;;;;;;;12.30;4.28;;;;;;;20.45;25.23;102082.16;5052858;28;20021;-75
2023/04/19 15:23:53;;;;;;;8.43;3.47;;;;;;;20.75;25.15;102074.47;5038161;28;20041;-75
2023/04/19 15:26:18;;;;;;;5.05;3.28;;;;;;;20.77;24.69;102080.53;5035292;28;20033;-75
2023/04/19 15:28:44;;;;;;;6.03;2.95;;;;;;;20.54;24.36;102079.78;5052734;28;20381;-77
2023/04/19 15:31:10;;;;;;;8.77;3.97;;;;;;;20.49;24.59;102080.56;5042234;28;20033;-75
2023/04/19 15:33:35;;;;;;;10.27;3.58;;;;;;;20.42;24.24;102076.38;5036999;28;20033;-75
2023/04/19 15:36:01;;;;;;;5.03;3.28;;;;;;;20.35;24.73;102069.16;5036998;28;20150;-77
2023/04/19 15:38:29;;;;;;;6.63;2.88;;;;;;;20.28;24.48;102076.78;5041313;28;20033;-76
2023/04/19 15:40:55;;;;;;;5.10;3.20;;;;;;;20.29;24.85;102072.13;5039328;28;20091;-74
2023/04/19 15:43:21;;;;;;;6.78;3.22;;;;;;;20.52;24.97;102059.97;5037349;28;20049;-70
2023/04/19 15:45:47;;;;;;;12.23;3.80;;;;;;;20.45;24.85;102059.34;5030865;28;20033;-74
2023/04/19 15:48:12;;;;;;;7.53;3.60;;;;;;;20.39;24.96;102055.72;5029132;28;20100;-74
2023/04/19 15:50:38;;;;;;;5.95;3.78;;;;;;;20.45;25.07;102053.84;5027065;28;20044;-74
2023/04/19 15:53:04;;;;;;;5.63;3.65;;;;;;;20.40;24.81;102056.56;5027417;28;20135;-76
2023/04/19 15:55:32;;;;;;;8.02;3.50;;;;;;;20.31;24.68;102054.28;5048417;28;20087;-76
2023/04/19 15:57:59;;;;;;;13.50;3.67;;;;;;;20.24;25.04;102050.91;5051393;28;20043;-75
2023/04/19 16:00:25;;;;;;;7.70;3.85;;;;;;;20.19;25.26;102056.38;5049131;28;20333;-76
